Malta, Montana
Current Conditions -  °F | °C
As of 10:53 PM on Tuesday 21 Oct 2014 (Local Time) from KGGW Reporting Station
Broken Clouds Broken Clouds  
Wind Chill: 53°   Ceiling: 10000
Heat Index: 53°   Visibility: 10mi
Dew Point: 45°   Wind: 15mph
Humidity: 74%   Direction: 280°W
Pressure: 29.71"   Gusts: NA
Location:  48.36°N, 107.87°W
Report Text: KGGW 220453Z AUTO 28013KT 10SM BKN100 12/07 A2971 RMK AO2 SLP062 T01170072
Loading
Personal Weather Stations






























Interactive Weather Map
Tropical Storm Tracking
New forecast layout! Learn more

10-Day Weather Forecast

Advertisements
Track Severe Weather on mobile